createdAt,value
2023-11-15T00:04:55.914Z,75.17
2023-11-15T00:09:58.601Z,75.08
2023-11-15T00:15:01.355Z,74.60
2023-11-15T00:20:05.431Z,74.84
2023-11-15T00:25:08.913Z,75.07
2023-11-15T00:30:12.796Z,75.10
2023-11-15T00:35:15.642Z,75.20
2023-11-15T00:40:19.378Z,75.22
2023-11-15T00:45:25.410Z,75.20
2023-11-15T00:50:28.255Z,75.27
2023-11-15T00:55:30.848Z,75.26
2023-11-15T01:00:40.996Z,75.14
2023-11-15T01:05:43.728Z,75.10
2023-11-15T01:10:47.095Z,75.41
2023-11-15T01:15:50.022Z,75.35
2023-11-15T01:20:53.016Z,75.13
2023-11-15T01:25:56.905Z,75.62
2023-11-15T01:30:59.616Z,76.05
2023-11-15T01:36:02.241Z,75.85
2023-11-15T01:41:07.899Z,75.82
2023-11-15T01:46:10.839Z,75.77
2023-11-15T01:51:13.494Z,75.99
2023-11-15T01:56:16.154Z,75.87
2023-11-15T02:01:19.033Z,75.77
2023-11-15T02:06:22.579Z,75.99
2023-11-15T02:11:28.953Z,75.76
2023-11-15T02:16:31.815Z,76.02
2023-11-15T02:21:34.530Z,76.16
2023-11-15T02:26:37.126Z,76.34
2023-11-15T02:31:40.109Z,76.67
2023-11-15T02:36:43.481Z,76.84
2023-11-15T02:41:46.555Z,76.70
2023-11-15T02:46:49.179Z,76.64
2023-11-15T02:51:51.771Z,76.48
2023-11-15T02:56:54.411Z,76.81
2023-11-15T03:01:57.054Z,76.70
2023-11-15T03:06:59.668Z,76.43
2023-11-15T03:12:02.521Z,76.26
2023-11-15T03:17:14.468Z,75.84
2023-11-15T03:22:17.105Z,75.52
2023-11-15T03:27:20.928Z,75.32
2023-11-15T03:32:24.449Z,75.22
2023-11-15T03:37:27.956Z,74.76
2023-11-15T03:42:30.648Z,74.20
2023-11-15T03:47:34.469Z,73.68
2023-11-15T03:52:37.343Z,73.27
2023-11-15T03:57:40.029Z,72.61
2023-11-15T04:02:42.864Z,72.47
2023-11-15T04:07:45.908Z,72.54
2023-11-15T04:12:48.488Z,73.26
2023-11-15T04:17:51.235Z,73.87
2023-11-15T04:22:53.939Z,73.49
2023-11-15T04:27:57.035Z,73.33
2023-11-15T04:33:00.774Z,73.14
2023-11-15T04:38:06.861Z,73.09
2023-11-15T04:43:10.139Z,73.44
2023-11-15T04:48:12.834Z,73.49
2023-11-15T04:53:15.375Z,73.63
2023-11-15T04:58:18.030Z,73.08
2023-11-15T05:03:21.672Z,73.26
2023-11-15T05:08:24.375Z,73.58
2023-11-15T05:13:27.115Z,73.73
2023-11-15T05:18:29.735Z,73.40
2023-11-15T05:23:32.462Z,73.16
2023-11-15T05:28:35.687Z,73.74
2023-11-15T05:33:38.410Z,73.99
2023-11-15T05:38:42.298Z,74.24
2023-11-15T05:43:44.922Z,74.84
2023-11-15T05:48:48.094Z,75.20
2023-11-15T05:53:50.733Z,74.98
2023-11-15T05:58:53.392Z,74.83
2023-11-15T06:03:56.064Z,75.13
2023-11-15T06:08:58.643Z,75.47
2023-11-15T06:14:01.226Z,75.92
2023-11-15T06:19:03.944Z,75.61
2023-11-15T06:24:06.885Z,76.03
2023-11-15T06:29:09.633Z,76.76
2023-11-15T06:34:12.827Z,77.41
2023-11-15T06:39:15.924Z,78.31
2023-11-15T06:44:18.561Z,78.56
2023-11-15T06:49:21.164Z,78.54
2023-11-15T06:54:23.899Z,78.90
2023-11-15T06:59:27.437Z,79.44
2023-11-15T07:04:31.227Z,79.55
2023-11-15T07:09:35.017Z,80.25
2023-11-15T07:14:37.848Z,80.52
2023-11-15T07:19:40.673Z,80.65
2023-11-15T07:24:44.405Z,80.59
2023-11-15T07:29:48.276Z,80.80
2023-11-15T07:34:50.887Z,80.69
2023-11-15T07:39:53.889Z,80.66
2023-11-15T07:44:56.537Z,80.15
2023-11-15T07:50:00.409Z,79.80
2023-11-15T07:55:03.509Z,79.59
2023-11-15T08:00:11.137Z,79.55
2023-11-15T08:05:17.487Z,79.48
2023-11-15T08:10:20.440Z,79.49
2023-11-15T08:15:23.171Z,79.43
2023-11-15T08:20:26.386Z,79.31
2023-11-15T08:25:29.343Z,79.14
2023-11-15T08:30:32.397Z,78.90
2023-11-15T08:35:35.051Z,78.88
2023-11-15T08:40:39.156Z,78.47
2023-11-15T08:45:42.971Z,78.56
2023-11-15T08:50:46.085Z,78.05
2023-11-15T08:55:50.450Z,78.10
2023-11-15T09:00:54.962Z,78.00
2023-11-15T09:05:57.736Z,78.02
2023-11-15T09:11:01.118Z,77.80
2023-11-15T09:16:04.296Z,77.86
2023-11-15T09:21:34.392Z,77.60
2023-11-15T09:26:39.358Z,77.46
2023-11-15T09:31:45.516Z,76.79
2023-11-15T09:36:51.534Z,76.42
2023-11-15T09:41:55.437Z,76.31
2023-11-15T09:46:59.879Z,76.13
2023-11-15T09:52:04.178Z,76.12
2023-11-15T09:57:07.877Z,75.78
2023-11-15T10:02:12.725Z,75.85
2023-11-15T10:07:27.341Z,75.58
2023-11-15T10:12:33.065Z,75.37
2023-11-15T10:17:44.518Z,75.41
2023-11-15T10:22:48.256Z,74.52
2023-11-15T10:27:52.770Z,73.63
2023-11-15T10:33:16.260Z,72.07
2023-11-15T10:38:24.070Z,70.56
2023-11-15T10:43:29.234Z,67.21
2023-11-15T10:48:35.406Z,65.86
2023-11-15T10:53:38.671Z,65.92
2023-11-15T10:58:43.201Z,65.89
2023-11-15T11:03:47.877Z,65.34
2023-11-15T11:09:17.928Z,65.39
2023-11-15T11:14:29.574Z,65.95
2023-11-15T11:19:42.492Z,66.35
2023-11-15T11:24:57.477Z,65.68
2023-11-15T11:30:03.336Z,65.63
2023-11-15T11:35:15.149Z,66.52
2023-11-15T11:40:40.651Z,65.66
2023-11-15T11:45:58.029Z,64.74
2023-11-15T11:51:09.518Z,64.12
2023-11-15T11:56:15.307Z,64.11
2023-11-15T12:01:18.055Z,65.04
2023-11-15T12:06:21.073Z,65.62
2023-11-15T12:11:24.771Z,66.48
2023-11-15T12:16:28.998Z,67.94
2023-11-15T12:21:42.816Z,68.89
2023-11-15T12:26:49.394Z,69.69
2023-11-15T12:31:58.015Z,70.64
2023-11-15T12:37:01.472Z,70.73
2023-11-15T12:42:05.682Z,71.57
2023-11-15T12:47:09.081Z,71.96
2023-11-15T12:52:12.120Z,72.22
2023-11-15T12:57:15.756Z,72.76
2023-11-15T13:02:38.113Z,72.96
2023-11-15T13:07:47.178Z,73.29
2023-11-15T13:12:55.229Z,73.77
2023-11-15T13:18:01.094Z,74.11
2023-11-15T13:23:06.021Z,73.83
2023-11-15T13:28:12.821Z,73.87
2023-11-15T13:33:19.588Z,73.88
2023-11-15T13:38:27.747Z,74.03
2023-11-15T13:43:38.974Z,73.54
2023-11-15T13:48:42.025Z,73.74
2023-11-15T13:53:46.348Z,73.79
2023-11-15T13:58:51.813Z,73.53
2023-11-15T14:03:56.452Z,72.95
2023-11-15T14:09:00.791Z,73.35
2023-11-15T14:14:05.744Z,73.23
2023-11-15T14:19:11.375Z,73.54
2023-11-15T14:24:14.105Z,73.46
2023-11-15T14:29:17.341Z,73.54
2023-11-15T14:34:21.565Z,73.55
2023-11-15T14:39:27.098Z,73.37
2023-11-15T14:44:30.211Z,73.77
2023-11-15T14:49:32.937Z,73.72
2023-11-15T14:54:41.969Z,73.87
2023-11-15T14:59:45.726Z,73.80
2023-11-15T15:04:50.589Z,74.20
2023-11-15T15:09:54.703Z,74.23
2023-11-15T15:14:59.896Z,74.40
2023-11-15T15:20:04.158Z,74.26
2023-11-15T15:25:10.382Z,74.15
2023-11-15T15:30:18.108Z,74.30
2023-11-15T15:35:21.370Z,74.62
2023-11-15T15:40:28.164Z,75.12
2023-11-15T15:45:31.025Z,75.04
2023-11-15T15:50:34.458Z,75.08
2023-11-15T15:55:38.165Z,75.48
2023-11-15T16:00:42.120Z,75.50
2023-11-15T16:05:46.353Z,75.60
2023-11-15T16:10:51.514Z,75.19
2023-11-15T16:15:56.000Z,75.62
2023-11-15T16:21:02.238Z,76.07
2023-11-15T16:26:08.486Z,75.76
2023-11-15T16:31:12.339Z,75.84
2023-11-15T16:36:16.123Z,75.83
2023-11-15T16:41:19.591Z,76.30
2023-11-15T16:46:22.461Z,75.94
2023-11-15T16:51:25.386Z,75.82
2023-11-15T16:56:28.380Z,75.99
2023-11-15T17:01:33.536Z,76.14
2023-11-15T17:06:40.880Z,77.22
2023-11-15T17:11:43.626Z,77.34
2023-11-15T17:16:47.172Z,77.53
2023-11-15T17:21:52.828Z,77.79
2023-11-15T17:26:55.661Z,78.23
2023-11-15T17:32:03.716Z,78.13
2023-11-15T17:37:07.286Z,78.34
2023-11-15T17:42:11.541Z,78.32
2023-11-15T17:47:18.254Z,78.42
2023-11-15T17:52:21.289Z,78.33
2023-11-15T17:57:23.936Z,78.46
2023-11-15T18:02:26.919Z,78.42
2023-11-15T18:07:29.640Z,79.22
2023-11-15T18:12:36.528Z,78.93
2023-11-15T18:17:42.379Z,78.60
2023-11-15T18:22:48.634Z,78.57
2023-11-15T18:27:51.334Z,78.30
2023-11-15T18:32:56.444Z,78.11
2023-11-15T18:37:59.547Z,78.25
2023-11-15T18:43:02.449Z,78.46
2023-11-15T18:48:07.961Z,78.59
2023-11-15T18:53:10.866Z,78.57
2023-11-15T18:58:13.526Z,78.30
2023-11-15T19:03:16.553Z,78.08
2023-11-15T19:08:20.089Z,78.25
2023-11-15T19:13:29.305Z,78.27
2023-11-15T19:18:32.189Z,78.54
2023-11-15T19:23:36.143Z,78.73
2023-11-15T19:28:38.934Z,78.71
2023-11-15T19:33:42.719Z,78.84
2023-11-15T19:38:45.462Z,78.77
2023-11-15T19:43:50.721Z,78.94
2023-11-15T19:48:54.571Z,78.94
2023-11-15T19:53:57.559Z,78.91
2023-11-15T19:59:00.696Z,78.44
2023-11-15T20:04:05.416Z,78.32
2023-11-15T20:09:11.232Z,78.54
2023-11-15T20:14:13.855Z,77.91
2023-11-15T20:19:20.075Z,77.60
2023-11-15T20:24:22.863Z,77.67
2023-11-15T20:29:25.484Z,77.33
2023-11-15T20:34:28.073Z,77.23
2023-11-15T20:39:31.404Z,76.78
2023-11-15T20:44:34.064Z,76.77
2023-11-15T20:49:37.801Z,76.50
2023-11-15T20:54:41.107Z,76.26
2023-11-15T20:59:44.880Z,76.07
2023-11-15T21:04:48.064Z,75.96
2023-11-15T21:09:53.917Z,75.84
2023-11-15T21:14:56.663Z,75.64
2023-11-15T21:19:59.307Z,75.70
2023-11-15T21:25:01.862Z,75.35
2023-11-15T21:30:06.260Z,75.07
2023-11-15T21:35:10.912Z,75.38
2023-11-15T21:40:16.941Z,74.88
2023-11-15T21:45:21.526Z,74.90
2023-11-15T21:50:24.400Z,74.63
2023-11-15T21:55:27.065Z,74.35
2023-11-15T22:00:30.457Z,75.00
2023-11-15T22:05:36.538Z,74.89
2023-11-15T22:10:39.235Z,74.68
2023-11-15T22:15:41.831Z,74.90
2023-11-15T22:20:44.751Z,75.06
2023-11-15T22:25:47.973Z,75.39
2023-11-15T22:30:50.924Z,75.34
2023-11-15T22:35:53.597Z,75.26
2023-11-15T22:40:56.255Z,75.26
2023-11-15T22:45:59.360Z,75.42
2023-11-15T22:51:02.058Z,75.37
2023-11-15T22:56:04.936Z,75.67
2023-11-15T23:01:07.534Z,75.23
2023-11-15T23:06:13.158Z,75.45
2023-11-15T23:11:16.577Z,75.58
2023-11-15T23:16:21.226Z,75.44
2023-11-15T23:21:24.037Z,75.33
2023-11-15T23:26:29.122Z,75.50
2023-11-15T23:31:35.815Z,75.51
2023-11-15T23:36:38.517Z,75.38
2023-11-15T23:41:41.180Z,75.59
2023-11-15T23:46:44.446Z,75.42
2023-11-15T23:51:47.078Z,75.12
2023-11-15T23:56:49.670Z,75.29
